sensor_id;sensor_type;location;lat;lon;timestamp;temperature;humidity
12013;DHT22;6065;48.138;16.402;2023-12-22T00:01:11;8.30;99.90
12013;DHT22;6065;48.138;16.402;2023-12-22T00:03:40;8.30;99.90
12013;DHT22;6065;48.138;16.402;2023-12-22T00:06:07;8.30;99.90
12013;DHT22;6065;48.138;16.402;2023-12-22T00:08:34;8.30;99.90
12013;DHT22;6065;48.138;16.402;2023-12-22T00:11:01;8.20;99.90
12013;DHT22;6065;48.138;16.402;2023-12-22T00:13:29;8.20;99.90
12013;DHT22;6065;48.138;16.402;2023-12-22T00:15:58;8.20;99.90
12013;DHT22;6065;48.138;16.402;2023-12-22T00:18:25;8.20;99.90
12013;DHT22;6065;48.138;16.402;2023-12-22T00:20:52;8.20;99.90
12013;DHT22;6065;48.138;16.402;2023-12-22T00:23:19;8.20;99.90
12013;DHT22;6065;48.138;16.402;2023-12-22T00:25:46;8.20;99.90
12013;DHT22;6065;48.138;16.402;2023-12-22T00:28:13;8.10;99.90
12013;DHT22;6065;48.138;16.402;2023-12-22T00:30:41;8.10;99.90
12013;DHT22;6065;48.138;16.402;2023-12-22T00:33:08;8.10;99.90
12013;DHT22;6065;48.138;16.402;2023-12-22T00:35:34;8.10;99.90
12013;DHT22;6065;48.138;16.402;2023-12-22T00:38:02;8.10;99.90
12013;DHT22;6065;48.138;16.402;2023-12-22T00:40:29;8.10;99.90
12013;DHT22;6065;48.138;16.402;2023-12-22T00:42:55;8.10;99.90
12013;DHT22;6065;48.138;16.402;2023-12-22T00:45:22;8.10;99.90
12013;DHT22;6065;48.138;16.402;2023-12-22T00:47:50;8.10;99.90
12013;DHT22;6065;48.138;16.402;2023-12-22T00:50:17;8.10;99.90
12013;DHT22;6065;48.138;16.402;2023-12-22T00:52:44;8.00;99.90
12013;DHT22;6065;48.138;16.402;2023-12-22T00:55:11;8.10;99.90
12013;DHT22;6065;48.138;16.402;2023-12-22T00:57:38;8.00;99.90
12013;DHT22;6065;48.138;16.402;2023-12-22T01:00:05;8.00;99.90
12013;DHT22;6065;48.138;16.402;2023-12-22T01:02:35;8.00;99.90
12013;DHT22;6065;48.138;16.402;2023-12-22T01:05:04;8.00;99.90
12013;DHT22;6065;48.138;16.402;2023-12-22T01:07:31;8.00;99.90
12013;DHT22;6065;48.138;16.402;2023-12-22T01:09:58;7.90;99.90
12013;DHT22;6065;48.138;16.402;2023-12-22T01:12:26;7.90;99.90
12013;DHT22;6065;48.138;16.402;2023-12-22T01:14:53;8.00;99.90
12013;DHT22;6065;48.138;16.402;2023-12-22T01:17:20;7.90;99.90
12013;DHT22;6065;48.138;16.402;2023-12-22T01:19:47;7.90;99.90
12013;DHT22;6065;48.138;16.402;2023-12-22T01:22:15;7.90;99.90
12013;DHT22;6065;48.138;16.402;2023-12-22T01:24:42;7.80;99.90
12013;DHT22;6065;48.138;16.402;2023-12-22T01:27:10;7.80;99.90
12013;DHT22;6065;48.138;16.402;2023-12-22T01:29:37;7.90;99.90
12013;DHT22;6065;48.138;16.402;2023-12-22T01:32:04;7.80;99.90
12013;DHT22;6065;48.138;16.402;2023-12-22T01:34:31;7.80;99.90
12013;DHT22;6065;48.138;16.402;2023-12-22T01:36:58;7.80;99.90
12013;DHT22;6065;48.138;16.402;2023-12-22T01:39:28;7.80;99.90
12013;DHT22;6065;48.138;16.402;2023-12-22T01:41:55;7.80;99.90
12013;DHT22;6065;48.138;16.402;2023-12-22T01:44:22;7.80;99.90
12013;DHT22;6065;48.138;16.402;2023-12-22T01:46:48;7.80;99.90
12013;DHT22;6065;48.138;16.402;2023-12-22T01:49:16;7.70;99.90
12013;DHT22;6065;48.138;16.402;2023-12-22T01:51:43;7.80;99.90
12013;DHT22;6065;48.138;16.402;2023-12-22T01:54:10;7.70;99.90
12013;DHT22;6065;48.138;16.402;2023-12-22T01:56:38;7.80;99.90
12013;DHT22;6065;48.138;16.402;2023-12-22T01:59:05;7.70;99.90
12013;DHT22;6065;48.138;16.402;2023-12-22T02:01:33;7.80;99.90
12013;DHT22;6065;48.138;16.402;2023-12-22T02:03:59;7.80;99.90
12013;DHT22;6065;48.138;16.402;2023-12-22T02:06:27;7.70;99.90
12013;DHT22;6065;48.138;16.402;2023-12-22T02:08:56;7.70;99.90
12013;DHT22;6065;48.138;16.402;2023-12-22T02:11:24;7.70;99.90
12013;DHT22;6065;48.138;16.402;2023-12-22T02:13:52;7.70;99.90
12013;DHT22;6065;48.138;16.402;2023-12-22T02:16:20;7.70;99.90
12013;DHT22;6065;48.138;16.402;2023-12-22T02:18:49;7.70;99.90
12013;DHT22;6065;48.138;16.402;2023-12-22T02:21:17;7.70;99.90
12013;DHT22;6065;48.138;16.402;2023-12-22T02:23:46;7.70;99.90
12013;DHT22;6065;48.138;16.402;2023-12-22T02:26:15;7.70;99.90
12013;DHT22;6065;48.138;16.402;2023-12-22T02:28:44;7.70;99.90
12013;DHT22;6065;48.138;16.402;2023-12-22T02:31:13;7.70;99.90
12013;DHT22;6065;48.138;16.402;2023-12-22T02:33:43;7.70;99.90
12013;DHT22;6065;48.138;16.402;2023-12-22T02:36:10;7.60;99.90
12013;DHT22;6065;48.138;16.402;2023-12-22T02:38:38;7.60;99.90
12013;DHT22;6065;48.138;16.402;2023-12-22T02:41:07;7.60;99.90
12013;DHT22;6065;48.138;16.402;2023-12-22T02:43:34;7.60;99.90
12013;DHT22;6065;48.138;16.402;2023-12-22T02:46:01;7.60;99.90
12013;DHT22;6065;48.138;16.402;2023-12-22T02:48:28;7.50;99.90
12013;DHT22;6065;48.138;16.402;2023-12-22T02:50:55;7.60;99.90
12013;DHT22;6065;48.138;16.402;2023-12-22T02:53:22;7.50;99.90
12013;DHT22;6065;48.138;16.402;2023-12-22T02:55:48;7.50;99.90
12013;DHT22;6065;48.138;16.402;2023-12-22T02:58:16;7.50;99.90
12013;DHT22;6065;48.138;16.402;2023-12-22T03:00:43;7.50;99.90
12013;DHT22;6065;48.138;16.402;2023-12-22T03:03:11;7.50;99.90
12013;DHT22;6065;48.138;16.402;2023-12-22T03:05:38;7.50;99.90
12013;DHT22;6065;48.138;16.402;2023-12-22T03:08:05;7.40;99.90
12013;DHT22;6065;48.138;16.402;2023-12-22T03:10:32;7.50;99.90
12013;DHT22;6065;48.138;16.402;2023-12-22T03:12:59;7.40;99.90
12013;DHT22;6065;48.138;16.402;2023-12-22T03:15:27;7.40;99.90
12013;DHT22;6065;48.138;16.402;2023-12-22T03:17:54;7.40;99.90
12013;DHT22;6065;48.138;16.402;2023-12-22T03:20:21;7.30;99.90
12013;DHT22;6065;48.138;16.402;2023-12-22T03:22:47;7.30;99.90
12013;DHT22;6065;48.138;16.402;2023-12-22T03:25:14;7.30;99.90
12013;DHT22;6065;48.138;16.402;2023-12-22T03:27:41;7.20;99.90
12013;DHT22;6065;48.138;16.402;2023-12-22T03:30:08;7.20;99.90
12013;DHT22;6065;48.138;16.402;2023-12-22T03:32:37;7.20;99.90
12013;DHT22;6065;48.138;16.402;2023-12-22T03:35:04;7.20;99.90
12013;DHT22;6065;48.138;16.402;2023-12-22T03:37:31;7.20;99.90
12013;DHT22;6065;48.138;16.402;2023-12-22T03:39:57;7.20;99.90
12013;DHT22;6065;48.138;16.402;2023-12-22T03:42:24;7.10;99.90
12013;DHT22;6065;48.138;16.402;2023-12-22T03:44:51;7.10;99.90
12013;DHT22;6065;48.138;16.402;2023-12-22T03:47:18;7.10;99.90
12013;DHT22;6065;48.138;16.402;2023-12-22T03:49:46;7.00;99.90
12013;DHT22;6065;48.138;16.402;2023-12-22T03:52:13;7.00;99.90
12013;DHT22;6065;48.138;16.402;2023-12-22T03:54:40;7.00;99.90
12013;DHT22;6065;48.138;16.402;2023-12-22T03:57:06;7.00;99.90
12013;DHT22;6065;48.138;16.402;2023-12-22T03:59:33;7.00;99.90
12013;DHT22;6065;48.138;16.402;2023-12-22T04:02:00;6.90;99.90
12013;DHT22;6065;48.138;16.402;2023-12-22T04:04:27;6.90;99.90
12013;DHT22;6065;48.138;16.402;2023-12-22T04:06:55;6.90;99.90
12013;DHT22;6065;48.138;16.402;2023-12-22T04:09:22;6.90;99.90
12013;DHT22;6065;48.138;16.402;2023-12-22T04:11:49;6.90;99.90
12013;DHT22;6065;48.138;16.402;2023-12-22T04:14:16;6.90;99.90
12013;DHT22;6065;48.138;16.402;2023-12-22T04:16:43;6.90;99.90
12013;DHT22;6065;48.138;16.402;2023-12-22T04:19:10;6.90;99.90
12013;DHT22;6065;48.138;16.402;2023-12-22T04:21:37;6.90;99.90
12013;DHT22;6065;48.138;16.402;2023-12-22T04:24:06;6.90;99.90
12013;DHT22;6065;48.138;16.402;2023-12-22T04:26:33;6.90;99.90
12013;DHT22;6065;48.138;16.402;2023-12-22T04:28:59;6.90;99.90
12013;DHT22;6065;48.138;16.402;2023-12-22T04:31:26;6.90;99.90
12013;DHT22;6065;48.138;16.402;2023-12-22T04:33:53;6.80;99.90
12013;DHT22;6065;48.138;16.402;2023-12-22T04:36:21;6.80;99.90
12013;DHT22;6065;48.138;16.402;2023-12-22T04:38:47;6.80;99.90
12013;DHT22;6065;48.138;16.402;2023-12-22T04:41:16;6.80;99.90
12013;DHT22;6065;48.138;16.402;2023-12-22T04:43:42;6.80;99.90
12013;DHT22;6065;48.138;16.402;2023-12-22T04:46:09;6.80;99.90
12013;DHT22;6065;48.138;16.402;2023-12-22T04:48:36;6.80;99.90
12013;DHT22;6065;48.138;16.402;2023-12-22T04:51:03;6.80;99.90
12013;DHT22;6065;48.138;16.402;2023-12-22T04:53:29;6.80;99.90
12013;DHT22;6065;48.138;16.402;2023-12-22T04:55:56;6.80;99.90
12013;DHT22;6065;48.138;16.402;2023-12-22T04:58:24;6.80;99.90
12013;DHT22;6065;48.138;16.402;2023-12-22T05:00:51;6.80;99.90
12013;DHT22;6065;48.138;16.402;2023-12-22T05:03:17;6.80;99.90
12013;DHT22;6065;48.138;16.402;2023-12-22T05:05:44;6.80;99.90
12013;DHT22;6065;48.138;16.402;2023-12-22T05:08:11;6.80;99.90
12013;DHT22;6065;48.138;16.402;2023-12-22T05:10:38;6.80;99.90
12013;DHT22;6065;48.138;16.402;2023-12-22T05:13:04;6.80;99.90
12013;DHT22;6065;48.138;16.402;2023-12-22T05:15:33;6.80;99.90
12013;DHT22;6065;48.138;16.402;2023-12-22T05:18:00;6.90;99.90
12013;DHT22;6065;48.138;16.402;2023-12-22T05:20:27;6.90;99.90
12013;DHT22;6065;48.138;16.402;2023-12-22T05:22:53;6.90;99.90
12013;DHT22;6065;48.138;16.402;2023-12-22T05:25:20;6.90;99.90
12013;DHT22;6065;48.138;16.402;2023-12-22T05:27:47;6.90;99.90
12013;DHT22;6065;48.138;16.402;2023-12-22T05:30:14;6.80;99.90
12013;DHT22;6065;48.138;16.402;2023-12-22T05:32:42;6.80;99.90
12013;DHT22;6065;48.138;16.402;2023-12-22T05:35:09;6.90;99.90
12013;DHT22;6065;48.138;16.402;2023-12-22T05:37:36;6.80;99.90
12013;DHT22;6065;48.138;16.402;2023-12-22T05:40:04;6.80;99.90
12013;DHT22;6065;48.138;16.402;2023-12-22T05:42:31;6.80;99.90
12013;DHT22;6065;48.138;16.402;2023-12-22T05:44:58;6.80;99.90
12013;DHT22;6065;48.138;16.402;2023-12-22T05:47:25;6.90;99.90
12013;DHT22;6065;48.138;16.402;2023-12-22T05:49:53;6.80;99.90
12013;DHT22;6065;48.138;16.402;2023-12-22T05:52:20;6.80;99.90
12013;DHT22;6065;48.138;16.402;2023-12-22T05:54:47;6.80;99.90
12013;DHT22;6065;48.138;16.402;2023-12-22T05:57:14;6.80;99.90
12013;DHT22;6065;48.138;16.402;2023-12-22T05:59:40;6.70;99.90
12013;DHT22;6065;48.138;16.402;2023-12-22T06:02:07;6.70;99.90
12013;DHT22;6065;48.138;16.402;2023-12-22T06:04:34;6.70;99.90
12013;DHT22;6065;48.138;16.402;2023-12-22T06:07:02;6.70;99.90
12013;DHT22;6065;48.138;16.402;2023-12-22T06:09:30;6.70;99.90
12013;DHT22;6065;48.138;16.402;2023-12-22T06:11:56;6.70;99.90
12013;DHT22;6065;48.138;16.402;2023-12-22T06:14:23;6.60;99.90
12013;DHT22;6065;48.138;16.402;2023-12-22T06:16:51;6.60;99.90
12013;DHT22;6065;48.138;16.402;2023-12-22T06:19:19;6.60;99.90
12013;DHT22;6065;48.138;16.402;2023-12-22T06:21:47;6.60;99.90
12013;DHT22;6065;48.138;16.402;2023-12-22T06:24:15;6.60;99.90
12013;DHT22;6065;48.138;16.402;2023-12-22T06:26:42;6.60;99.90
12013;DHT22;6065;48.138;16.402;2023-12-22T06:29:09;6.60;99.90
12013;DHT22;6065;48.138;16.402;2023-12-22T06:31:36;6.50;99.90
12013;DHT22;6065;48.138;16.402;2023-12-22T06:34:02;6.50;99.90
12013;DHT22;6065;48.138;16.402;2023-12-22T06:36:30;6.50;99.90
12013;DHT22;6065;48.138;16.402;2023-12-22T06:38:57;6.50;99.90
12013;DHT22;6065;48.138;16.402;2023-12-22T06:41:25;6.40;99.90
12013;DHT22;6065;48.138;16.402;2023-12-22T06:43:52;6.40;99.90
12013;DHT22;6065;48.138;16.402;2023-12-22T06:46:20;6.40;99.90
12013;DHT22;6065;48.138;16.402;2023-12-22T06:48:47;6.30;99.90
12013;DHT22;6065;48.138;16.402;2023-12-22T06:51:17;6.30;99.90
12013;DHT22;6065;48.138;16.402;2023-12-22T06:53:44;6.30;99.90
12013;DHT22;6065;48.138;16.402;2023-12-22T06:56:15;6.30;99.90
12013;DHT22;6065;48.138;16.402;2023-12-22T06:58:43;6.20;99.90
12013;DHT22;6065;48.138;16.402;2023-12-22T07:01:11;6.20;99.90
12013;DHT22;6065;48.138;16.402;2023-12-22T07:03:38;6.20;99.90
12013;DHT22;6065;48.138;16.402;2023-12-22T07:06:05;6.20;99.90
12013;DHT22;6065;48.138;16.402;2023-12-22T07:08:32;6.20;99.90
12013;DHT22;6065;48.138;16.402;2023-12-22T07:10:59;6.20;99.90
12013;DHT22;6065;48.138;16.402;2023-12-22T07:13:26;6.20;99.90
12013;DHT22;6065;48.138;16.402;2023-12-22T07:15:54;6.20;99.90
12013;DHT22;6065;48.138;16.402;2023-12-22T07:18:21;6.20;99.90
12013;DHT22;6065;48.138;16.402;2023-12-22T07:20:47;6.20;99.90
12013;DHT22;6065;48.138;16.402;2023-12-22T07:23:14;6.30;99.90
12013;DHT22;6065;48.138;16.402;2023-12-22T07:25:41;6.20;99.90
12013;DHT22;6065;48.138;16.402;2023-12-22T07:28:08;6.20;99.90
12013;DHT22;6065;48.138;16.402;2023-12-22T07:30:35;6.20;99.90
12013;DHT22;6065;48.138;16.402;2023-12-22T07:33:03;6.20;99.90
12013;DHT22;6065;48.138;16.402;2023-12-22T07:35:30;6.20;99.90
12013;DHT22;6065;48.138;16.402;2023-12-22T07:37:57;6.20;99.90
12013;DHT22;6065;48.138;16.402;2023-12-22T07:40:24;6.20;99.90
12013;DHT22;6065;48.138;16.402;2023-12-22T07:42:51;6.20;99.90
12013;DHT22;6065;48.138;16.402;2023-12-22T07:45:18;6.20;99.90
12013;DHT22;6065;48.138;16.402;2023-12-22T07:47:45;6.30;99.90
12013;DHT22;6065;48.138;16.402;2023-12-22T07:50:13;6.30;99.90
12013;DHT22;6065;48.138;16.402;2023-12-22T07:52:40;6.30;99.90
12013;DHT22;6065;48.138;16.402;2023-12-22T07:55:08;6.30;99.90
12013;DHT22;6065;48.138;16.402;2023-12-22T07:57:36;6.30;99.90
12013;DHT22;6065;48.138;16.402;2023-12-22T08:00:03;6.30;99.90
12013;DHT22;6065;48.138;16.402;2023-12-22T08:02:31;6.30;99.90
12013;DHT22;6065;48.138;16.402;2023-12-22T08:04:57;6.30;99.90
12013;DHT22;6065;48.138;16.402;2023-12-22T08:07:26;6.30;99.90
12013;DHT22;6065;48.138;16.402;2023-12-22T08:09:53;6.30;99.90
12013;DHT22;6065;48.138;16.402;2023-12-22T08:12:20;6.30;99.90
12013;DHT22;6065;48.138;16.402;2023-12-22T08:14:47;6.30;99.90
12013;DHT22;6065;48.138;16.402;2023-12-22T08:17:14;6.30;99.90
12013;DHT22;6065;48.138;16.402;2023-12-22T08:19:41;6.30;99.90
12013;DHT22;6065;48.138;16.402;2023-12-22T08:22:09;6.30;99.90
12013;DHT22;6065;48.138;16.402;2023-12-22T08:24:37;6.40;99.90
12013;DHT22;6065;48.138;16.402;2023-12-22T08:27:04;6.30;99.90
12013;DHT22;6065;48.138;16.402;2023-12-22T08:29:31;6.40;99.90
12013;DHT22;6065;48.138;16.402;2023-12-22T08:31:58;6.40;99.90
12013;DHT22;6065;48.138;16.402;2023-12-22T08:34:25;6.40;99.90
12013;DHT22;6065;48.138;16.402;2023-12-22T08:36:52;6.40;99.90
12013;DHT22;6065;48.138;16.402;2023-12-22T08:39:19;6.40;99.90
12013;DHT22;6065;48.138;16.402;2023-12-22T08:41:47;6.40;99.90
12013;DHT22;6065;48.138;16.402;2023-12-22T08:44:14;6.40;99.90
12013;DHT22;6065;48.138;16.402;2023-12-22T08:46:41;6.40;99.90
12013;DHT22;6065;48.138;16.402;2023-12-22T08:49:08;6.40;99.90
12013;DHT22;6065;48.138;16.402;2023-12-22T08:51:35;6.40;99.90
12013;DHT22;6065;48.138;16.402;2023-12-22T08:54:02;6.50;99.90
12013;DHT22;6065;48.138;16.402;2023-12-22T08:56:29;6.50;99.90
12013;DHT22;6065;48.138;16.402;2023-12-22T08:58:58;6.50;99.90
12013;DHT22;6065;48.138;16.402;2023-12-22T09:01:25;6.60;99.90
12013;DHT22;6065;48.138;16.402;2023-12-22T09:03:52;6.60;99.90
12013;DHT22;6065;48.138;16.402;2023-12-22T09:06:19;6.60;99.90
12013;DHT22;6065;48.138;16.402;2023-12-22T09:08:46;6.60;99.90
12013;DHT22;6065;48.138;16.402;2023-12-22T09:11:13;6.60;99.90
12013;DHT22;6065;48.138;16.402;2023-12-22T09:13:41;6.60;99.90
12013;DHT22;6065;48.138;16.402;2023-12-22T09:16:09;6.60;99.90
12013;DHT22;6065;48.138;16.402;2023-12-22T09:18:36;6.60;99.90
12013;DHT22;6065;48.138;16.402;2023-12-22T09:21:03;6.70;99.90
12013;DHT22;6065;48.138;16.402;2023-12-22T09:23:30;6.70;99.90
12013;DHT22;6065;48.138;16.402;2023-12-22T09:25:57;6.70;99.90
12013;DHT22;6065;48.138;16.402;2023-12-22T09:28:24;6.80;99.90
12013;DHT22;6065;48.138;16.402;2023-12-22T09:30:51;6.80;99.90
12013;DHT22;6065;48.138;16.402;2023-12-22T09:33:19;6.90;99.90
12013;DHT22;6065;48.138;16.402;2023-12-22T09:35:48;6.90;99.90
12013;DHT22;6065;48.138;16.402;2023-12-22T09:38:16;7.00;99.90
12013;DHT22;6065;48.138;16.402;2023-12-22T09:40:47;7.00;99.90
12013;DHT22;6065;48.138;16.402;2023-12-22T09:43:14;7.00;99.90
12013;DHT22;6065;48.138;16.402;2023-12-22T09:45:41;7.10;99.90
12013;DHT22;6065;48.138;16.402;2023-12-22T09:48:08;7.10;99.90
12013;DHT22;6065;48.138;16.402;2023-12-22T09:50:37;7.10;99.90
12013;DHT22;6065;48.138;16.402;2023-12-22T09:53:05;7.00;99.90
12013;DHT22;6065;48.138;16.402;2023-12-22T09:55:32;7.10;99.90
12013;DHT22;6065;48.138;16.402;2023-12-22T09:58:00;7.00;99.90
12013;DHT22;6065;48.138;16.402;2023-12-22T10:00:27;7.00;99.90
12013;DHT22;6065;48.138;16.402;2023-12-22T10:02:55;7.00;99.90
12013;DHT22;6065;48.138;16.402;2023-12-22T10:05:22;7.00;99.90
12013;DHT22;6065;48.138;16.402;2023-12-22T10:07:50;6.90;99.90
12013;DHT22;6065;48.138;16.402;2023-12-22T10:10:17;6.90;99.90
12013;DHT22;6065;48.138;16.402;2023-12-22T10:12:44;6.90;99.90
12013;DHT22;6065;48.138;16.402;2023-12-22T10:15:12;6.90;99.90
12013;DHT22;6065;48.138;16.402;2023-12-22T10:17:39;6.90;99.90
12013;DHT22;6065;48.138;16.402;2023-12-22T10:20:06;6.80;99.90
12013;DHT22;6065;48.138;16.402;2023-12-22T10:22:33;6.80;99.90
12013;DHT22;6065;48.138;16.402;2023-12-22T10:25:02;6.90;99.90
12013;DHT22;6065;48.138;16.402;2023-12-22T10:27:29;6.90;99.90
12013;DHT22;6065;48.138;16.402;2023-12-22T10:30:00;6.90;99.90
12013;DHT22;6065;48.138;16.402;2023-12-22T10:32:27;6.90;99.90
12013;DHT22;6065;48.138;16.402;2023-12-22T10:34:54;7.00;99.90
12013;DHT22;6065;48.138;16.402;2023-12-22T10:37:22;7.10;99.90
12013;DHT22;6065;48.138;16.402;2023-12-22T10:39:51;7.10;99.90
12013;DHT22;6065;48.138;16.402;2023-12-22T10:42:20;7.10;99.90
12013;DHT22;6065;48.138;16.402;2023-12-22T10:44:46;7.30;99.90
12013;DHT22;6065;48.138;16.402;2023-12-22T10:47:14;7.40;99.90
12013;DHT22;6065;48.138;16.402;2023-12-22T10:49:41;7.50;99.90
12013;DHT22;6065;48.138;16.402;2023-12-22T10:52:10;7.60;99.90
12013;DHT22;6065;48.138;16.402;2023-12-22T10:54:41;7.70;99.90
12013;DHT22;6065;48.138;16.402;2023-12-22T10:57:09;7.80;99.90
12013;DHT22;6065;48.138;16.402;2023-12-22T10:59:38;7.90;99.90
12013;DHT22;6065;48.138;16.402;2023-12-22T11:02:07;8.00;99.90
12013;DHT22;6065;48.138;16.402;2023-12-22T11:04:35;8.10;99.90
12013;DHT22;6065;48.138;16.402;2023-12-22T11:07:03;8.20;99.90
12013;DHT22;6065;48.138;16.402;2023-12-22T11:09:31;8.30;99.90
12013;DHT22;6065;48.138;16.402;2023-12-22T11:11:58;8.30;99.90
12013;DHT22;6065;48.138;16.402;2023-12-22T11:14:26;8.40;99.90
12013;DHT22;6065;48.138;16.402;2023-12-22T11:16:55;8.60;99.90
12013;DHT22;6065;48.138;16.402;2023-12-22T11:19:21;9.00;99.90
12013;DHT22;6065;48.138;16.402;2023-12-22T11:21:49;9.40;99.90
12013;DHT22;6065;48.138;16.402;2023-12-22T11:24:16;9.50;99.90
12013;DHT22;6065;48.138;16.402;2023-12-22T11:26:45;9.40;99.90
12013;DHT22;6065;48.138;16.402;2023-12-22T11:29:12;9.20;99.90
12013;DHT22;6065;48.138;16.402;2023-12-22T11:31:41;8.90;99.90
12013;DHT22;6065;48.138;16.402;2023-12-22T11:34:10;8.60;99.90
12013;DHT22;6065;48.138;16.402;2023-12-22T11:36:38;8.40;99.90
12013;DHT22;6065;48.138;16.402;2023-12-22T11:39:05;8.20;99.90
12013;DHT22;6065;48.138;16.402;2023-12-22T11:41:33;8.00;99.90
12013;DHT22;6065;48.138;16.402;2023-12-22T11:44:00;7.90;99.90
12013;DHT22;6065;48.138;16.402;2023-12-22T11:46:29;7.70;99.90
12013;DHT22;6065;48.138;16.402;2023-12-22T11:48:56;7.60;99.90
12013;DHT22;6065;48.138;16.402;2023-12-22T11:51:25;7.50;99.90
12013;DHT22;6065;48.138;16.402;2023-12-22T11:53:59;7.70;99.90
12013;DHT22;6065;48.138;16.402;2023-12-22T11:56:26;8.10;99.90
12013;DHT22;6065;48.138;16.402;2023-12-22T11:58:53;8.50;99.90
12013;DHT22;6065;48.138;16.402;2023-12-22T12:01:23;9.00;99.90
12013;DHT22;6065;48.138;16.402;2023-12-22T12:03:50;9.40;99.90
12013;DHT22;6065;48.138;16.402;2023-12-22T12:06:21;9.80;99.90
12013;DHT22;6065;48.138;16.402;2023-12-22T12:08:50;10.00;99.90
12013;DHT22;6065;48.138;16.402;2023-12-22T12:11:17;9.90;99.90
12013;DHT22;6065;48.138;16.402;2023-12-22T12:13:45;9.80;99.90
12013;DHT22;6065;48.138;16.402;2023-12-22T12:16:12;9.70;99.90
12013;DHT22;6065;48.138;16.402;2023-12-22T12:18:39;9.60;99.90
12013;DHT22;6065;48.138;16.402;2023-12-22T12:21:07;9.40;99.90
12013;DHT22;6065;48.138;16.402;2023-12-22T12:23:34;9.30;99.90
12013;DHT22;6065;48.138;16.402;2023-12-22T12:26:03;9.00;99.90
12013;DHT22;6065;48.138;16.402;2023-12-22T12:28:30;8.70;99.90
12013;DHT22;6065;48.138;16.402;2023-12-22T12:30:58;8.50;99.90
12013;DHT22;6065;48.138;16.402;2023-12-22T12:33:25;8.40;99.90
12013;DHT22;6065;48.138;16.402;2023-12-22T12:35:52;8.30;99.90
12013;DHT22;6065;48.138;16.402;2023-12-22T12:38:19;8.10;99.90
12013;DHT22;6065;48.138;16.402;2023-12-22T12:40:48;8.00;99.90
12013;DHT22;6065;48.138;16.402;2023-12-22T12:43:18;7.90;99.90
12013;DHT22;6065;48.138;16.402;2023-12-22T12:45:45;7.90;99.90
12013;DHT22;6065;48.138;16.402;2023-12-22T12:48:13;7.80;99.90
12013;DHT22;6065;48.138;16.402;2023-12-22T12:50:42;7.80;99.90
12013;DHT22;6065;48.138;16.402;2023-12-22T12:53:09;7.80;99.90
12013;DHT22;6065;48.138;16.402;2023-12-22T12:55:36;7.70;99.90
12013;DHT22;6065;48.138;16.402;2023-12-22T12:58:03;7.70;99.90
12013;DHT22;6065;48.138;16.402;2023-12-22T13:00:32;7.70;99.90
12013;DHT22;6065;48.138;16.402;2023-12-22T13:03:01;7.70;99.90
12013;DHT22;6065;48.138;16.402;2023-12-22T13:05:30;7.70;99.90
12013;DHT22;6065;48.138;16.402;2023-12-22T13:08:05;7.60;99.90
12013;DHT22;6065;48.138;16.402;2023-12-22T13:10:33;7.60;99.90
12013;DHT22;6065;48.138;16.402;2023-12-22T13:13:00;7.60;99.90
12013;DHT22;6065;48.138;16.402;2023-12-22T13:15:27;7.60;99.90
12013;DHT22;6065;48.138;16.402;2023-12-22T13:17:55;7.60;99.90
12013;DHT22;6065;48.138;16.402;2023-12-22T13:20:22;7.60;99.90
12013;DHT22;6065;48.138;16.402;2023-12-22T13:22:49;7.50;99.90
12013;DHT22;6065;48.138;16.402;2023-12-22T13:25:16;7.50;99.90
12013;DHT22;6065;48.138;16.402;2023-12-22T13:27:46;7.40;99.90
12013;DHT22;6065;48.138;16.402;2023-12-22T13:30:13;7.40;99.90
12013;DHT22;6065;48.138;16.402;2023-12-22T13:32:40;7.40;99.90
12013;DHT22;6065;48.138;16.402;2023-12-22T13:35:08;7.40;99.90
12013;DHT22;6065;48.138;16.402;2023-12-22T13:37:40;7.40;99.90
12013;DHT22;6065;48.138;16.402;2023-12-22T13:40:08;7.40;99.90
12013;DHT22;6065;48.138;16.402;2023-12-22T13:42:35;7.40;99.90
12013;DHT22;6065;48.138;16.402;2023-12-22T13:45:03;7.40;99.90
12013;DHT22;6065;48.138;16.402;2023-12-22T13:47:30;7.40;99.90
12013;DHT22;6065;48.138;16.402;2023-12-22T13:49:57;7.30;99.90
12013;DHT22;6065;48.138;16.402;2023-12-22T13:52:26;7.40;99.90
12013;DHT22;6065;48.138;16.402;2023-12-22T13:54:53;7.30;99.90
12013;DHT22;6065;48.138;16.402;2023-12-22T13:57:22;7.30;99.90
12013;DHT22;6065;48.138;16.402;2023-12-22T13:59:49;7.30;99.90
12013;DHT22;6065;48.138;16.402;2023-12-22T14:02:19;7.30;99.90
12013;DHT22;6065;48.138;16.402;2023-12-22T14:04:46;7.30;99.90
12013;DHT22;6065;48.138;16.402;2023-12-22T14:07:13;7.30;99.90
12013;DHT22;6065;48.138;16.402;2023-12-22T14:09:41;7.30;99.90
12013;DHT22;6065;48.138;16.402;2023-12-22T14:12:08;7.30;99.90
12013;DHT22;6065;48.138;16.402;2023-12-22T14:14:35;7.30;99.90
12013;DHT22;6065;48.138;16.402;2023-12-22T14:17:01;7.30;99.00
12013;DHT22;6065;48.138;16.402;2023-12-22T14:19:28;7.40;96.50
12013;DHT22;6065;48.138;16.402;2023-12-22T14:21:55;7.40;94.80
12013;DHT22;6065;48.138;16.402;2023-12-22T14:24:22;7.50;93.50
12013;DHT22;6065;48.138;16.402;2023-12-22T14:26:54;7.50;93.60
12013;DHT22;6065;48.138;16.402;2023-12-22T14:29:22;7.50;93.60
12013;DHT22;6065;48.138;16.402;2023-12-22T14:31:49;7.50;93.70
12013;DHT22;6065;48.138;16.402;2023-12-22T14:34:17;7.50;93.60
12013;DHT22;6065;48.138;16.402;2023-12-22T14:36:44;7.50;93.90
12013;DHT22;6065;48.138;16.402;2023-12-22T14:39:11;7.50;94.00
12013;DHT22;6065;48.138;16.402;2023-12-22T14:41:39;7.50;94.30
12013;DHT22;6065;48.138;16.402;2023-12-22T14:44:07;7.40;94.90
12013;DHT22;6065;48.138;16.402;2023-12-22T14:46:36;7.40;95.70
12013;DHT22;6065;48.138;16.402;2023-12-22T14:49:03;7.30;96.20
12013;DHT22;6065;48.138;16.402;2023-12-22T14:51:34;7.30;96.40
12013;DHT22;6065;48.138;16.402;2023-12-22T14:54:01;7.20;96.80
12013;DHT22;6065;48.138;16.402;2023-12-22T14:56:28;7.10;97.10
12013;DHT22;6065;48.138;16.402;2023-12-22T14:58:55;7.10;97.70
12013;DHT22;6065;48.138;16.402;2023-12-22T15:01:23;7.10;98.50
12013;DHT22;6065;48.138;16.402;2023-12-22T15:03:50;7.00;99.10
12013;DHT22;6065;48.138;16.402;2023-12-22T15:06:17;6.90;99.90
12013;DHT22;6065;48.138;16.402;2023-12-22T15:08:44;6.80;99.90
12013;DHT22;6065;48.138;16.402;2023-12-22T15:11:10;6.80;99.90
12013;DHT22;6065;48.138;16.402;2023-12-22T15:13:38;6.70;99.90
12013;DHT22;6065;48.138;16.402;2023-12-22T15:16:05;6.60;99.90
12013;DHT22;6065;48.138;16.402;2023-12-22T15:18:34;6.60;99.90
12013;DHT22;6065;48.138;16.402;2023-12-22T15:21:01;6.50;99.90
12013;DHT22;6065;48.138;16.402;2023-12-22T15:23:28;6.50;99.90
12013;DHT22;6065;48.138;16.402;2023-12-22T15:25:58;6.40;99.90
12013;DHT22;6065;48.138;16.402;2023-12-22T15:28:27;6.40;99.90
12013;DHT22;6065;48.138;16.402;2023-12-22T15:30:54;6.40;99.90
12013;DHT22;6065;48.138;16.402;2023-12-22T15:33:21;6.40;99.90
12013;DHT22;6065;48.138;16.402;2023-12-22T15:35:49;6.30;99.90
12013;DHT22;6065;48.138;16.402;2023-12-22T15:38:20;6.40;99.90
12013;DHT22;6065;48.138;16.402;2023-12-22T15:40:46;6.30;99.90
12013;DHT22;6065;48.138;16.402;2023-12-22T15:43:13;6.30;99.90
12013;DHT22;6065;48.138;16.402;2023-12-22T15:45:40;6.30;99.90